Etusivu
METAR-TAF:

METAR-TAF

Lentoasemat :

Tiaret, Algeria

Leveyspiiri: 35-15N, Pituuspiiri: 001-26E, korkeus merenpinnasta: 1127 m

Tämänhetkinen sää

Tämä raportti tehtiin 33 minuuttia sitten, kello 04.00 UTC
Tuuli 2 kn eri suunnista
Lämpötila 20°C
Kosteus 37%
Ilmanpaine 1018 hPa
Näkyvyys 10 km tai enemmän
ei pilviä alle 1500 m:ssä eikä cumulonimbus-pilviä

METAR: DAOB 140400Z VRB02KT CAVOK 20/05 Q1018

Aika: 05:33 (04:33 UTC)

Sääennuste

Tämä raportti tehtiin 5 tuntia ja 33 minuuttia sitten, kello 23.00 UTC
Ennuste voimassa 14. päivästä klo 00 UTC - 14. päivään klo 24 UTC
Tuuli 2 kn eri suunnista
Näkyvyys 10 km tai enemmän
ei pilviä alle 1500 m:ssä eikä cumulonimbus-pilviä
Tulossa
14. päivästä klo 10 UTC - 14. päivään klo 13 UTC
Tuuli 12 kn luoteesta
Tulossa
14. päivästä klo 20 UTC - 14. päivään klo 23 UTC
Tuuli 2 kn eri suunnista

TAF: DAOB 132300Z 1400/1424 VRB02KT CAVOK BECMG 1410/1413 31012KT BECMG 1420/1423 VRB02KT

Säähavainnot ja -ennusteet yli 4000 lentoasemalta (METAR- ja TAF-raportit).

Käytössä olevat sääasemat on merkitty karttaan keltaisilla ja punaisilla pisteillä.

Aseta hiiri pisteen päälle nähdäksesi sääaseman nimen.

Klikkaa sitten nähdäksesi säähavainnot ja -ennusteet.

Kartan vaihtaminen: klikkaa mustalla rastilla varustettuja vihreitä pisteitä, niin voit zoomata sisään; viivalla varustettua vihreää pistettä, niin voit zoomata ulos tai vihreitä nuolia, niin pääset viereisille kartoille.


METAR-TAF: